Time;durP1;ratioP1;P1;durP2;ratioP2;P2;SDS_P1;SDS_P2;PMS_P1;PMS_P2;Temp;Humidity;BMP_temperature;BMP_pressure;BME280_temperature;BME280_humidity;BME280_pressure;Samples;Min_cycle;Max_cycle;Signal;HPM_P1;HPM_P2
2023/10/08 00:02:25;;;;;;;2.17;1.33;;;10.40;99.90;;;;;;5026597;28;20026;-51
2023/10/08 00:04:51;;;;;;;3.70;1.90;;;10.40;99.90;;;;;;5028750;28;20079;-50
2023/10/08 00:07:21;;;;;;;4.63;1.63;;;10.40;99.90;;;;;;5026906;28;20033;-52
2023/10/08 00:09:51;;;;;;;2.78;1.30;;;10.40;99.90;;;;;;5027090;28;20549;-55
2023/10/08 00:12:17;;;;;;;5.82;2.00;;;10.40;99.90;;;;;;5026763;28;20026;-55
2023/10/08 00:14:49;;;;;;;3.78;1.98;;;10.40;99.90;;;;;;5026214;28;20043;-51
2023/10/08 00:17:15;;;;;;;4.95;1.40;;;10.40;99.90;;;;;;5028908;28;20017;-54
2023/10/08 00:19:43;;;;;;;4.95;1.50;;;10.40;99.90;;;;;;5028354;28;20024;-50
2023/10/08 00:22:10;;;;;;;4.28;1.80;;;10.40;99.90;;;;;;5020448;28;20029;-50
2023/10/08 00:24:37;;;;;;;2.03;1.52;;;10.40;99.90;;;;;;5028523;28;20026;-52
2023/10/08 00:27:06;;;;;;;4.80;1.40;;;10.40;99.90;;;;;;5030552;28;20493;-49
2023/10/08 00:29:32;;;;;;;1.77;1.42;;;10.40;99.90;;;;;;5027803;28;20485;-52
2023/10/08 00:31:58;;;;;;;3.58;1.52;;;10.40;99.90;;;;;;5028284;28;20108;-52
2023/10/08 00:34:24;;;;;;;3.00;1.52;;;10.40;99.90;;;;;;5026830;28;20048;-51
2023/10/08 00:36:50;;;;;;;3.50;1.50;;;10.30;99.90;;;;;;5011404;28;20124;-52
2023/10/08 00:39:22;;;;;;;3.65;1.52;;;10.30;99.90;;;;;;5010283;28;20029;-51
2023/10/08 00:41:49;;;;;;;3.47;1.58;;;10.30;99.90;;;;;;5028800;28;20026;-51
2023/10/08 00:44:22;;;;;;;9.15;1.63;;;10.30;99.90;;;;;;5029598;28;20029;-50
2023/10/08 00:46:48;;;;;;;4.40;1.40;;;10.30;99.90;;;;;;5025902;28;20030;-50
2023/10/08 00:49:25;;;;;;;4.70;1.70;;;10.30;99.90;;;;;;5041473;22;20501;-86
2023/10/08 00:54:46;;;;;;;4.22;1.52;;;10.20;99.90;;;;;;5031917;28;20083;-85
2023/10/08 00:57:20;;;;;;;4.72;1.55;;;10.20;99.90;;;;;;5046038;28;20536;-86
2023/10/08 00:59:52;;;;;;;6.53;1.67;;;10.20;99.90;;;;;;5041379;28;20072;-86
2023/10/08 01:02:42;;;;;;;5.55;2.17;;;10.20;99.90;;;;;;5027820;28;20173;-85
2023/10/08 01:05:10;;;;;;;7.07;2.13;;;10.20;99.90;;;;;;5030819;28;20385;-86
2023/10/08 01:07:35;;;;;;;4.07;1.70;;;10.20;99.90;;;;;;5028522;28;20052;-86
2023/10/08 01:10:10;;;;;;;4.57;1.40;;;10.20;99.90;;;;;;5030713;28;20489;-86
2023/10/08 01:12:44;;;;;;;5.20;1.50;;;10.20;99.90;;;;;;5031150;28;20033;-86
2023/10/08 01:15:18;;;;;;;5.20;1.52;;;10.10;99.90;;;;;;5029311;28;20111;-87
2023/10/08 01:20:34;;;;;;;4.82;1.63;;;10.10;99.90;;;;;;5032650;28;20051;-86
2023/10/08 01:23:16;;;;;;;5.18;1.40;;;10.10;99.90;;;;;;5031522;28;20053;-86
2023/10/08 01:25:43;;;;;;;6.93;1.83;;;10.10;99.90;;;;;;5032448;28;20393;-87
2023/10/08 01:28:18;;;;;;;6.30;1.35;;;10.00;99.90;;;;;;5032426;28;20028;-86
2023/10/08 01:30:47;;;;;;;3.70;1.47;;;10.10;99.90;;;;;;5031273;28;20021;-86
2023/10/08 01:33:15;;;;;;;2.80;0.88;;;10.10;99.90;;;;;;5029743;28;20036;-86
2023/10/08 01:35:41;;;;;;;3.78;1.30;;;10.10;99.90;;;;;;5026334;28;20033;-85
2023/10/08 01:38:13;;;;;;;3.33;1.15;;;10.10;99.90;;;;;;5032239;28;20055;-85
2023/10/08 01:40:39;;;;;;;2.30;1.02;;;10.10;99.90;;;;;;5033712;28;20509;-85
2023/10/08 01:43:05;;;;;;;2.58;1.38;;;10.10;99.90;;;;;;5032682;28;20042;-86
2023/10/08 01:45:32;;;;;;;1.95;1.20;;;10.10;99.90;;;;;;5035501;28;20417;-85
2023/10/08 01:47:58;;;;;;;1.52;1.00;;;10.10;99.90;;;;;;5033609;28;20524;-87
2023/10/08 01:50:29;;;;;;;3.70;1.30;;;10.10;99.90;;;;;;5034907;28;20563;-86
2023/10/08 01:52:55;;;;;;;2.30;1.20;;;10.10;99.90;;;;;;5039254;28;20017;-88
2023/10/08 01:55:22;;;;;;;5.22;1.08;;;10.10;99.90;;;;;;5029904;28;20056;-85
2023/10/08 01:57:49;;;;;;;1.95;1.00;;;10.10;99.90;;;;;;5023679;28;20041;-86
2023/10/08 02:00:19;;;;;;;2.10;0.98;;;10.10;99.90;;;;;;5032208;28;20025;-84
2023/10/08 02:02:50;;;;;;;1.45;0.85;;;10.10;99.90;;;;;;5048663;28;20025;-85
2023/10/08 02:05:18;;;;;;;3.72;1.13;;;10.10;99.90;;;;;;5032585;28;20028;-88
2023/10/08 02:07:44;;;;;;;1.92;1.10;;;10.10;99.90;;;;;;5032180;28;20496;-86
2023/10/08 02:10:10;;;;;;;4.30;1.25;;;10.10;99.90;;;;;;5031839;28;20171;-86
2023/10/08 02:12:42;;;;;;;2.38;1.38;;;10.10;99.90;;;;;;5031748;28;20116;-85
2023/10/08 02:15:11;;;;;;;2.10;1.15;;;10.10;99.90;;;;;;5032388;28;20032;-85
2023/10/08 02:17:37;;;;;;;2.47;1.00;;;10.00;99.90;;;;;;5031104;28;20052;-86
2023/10/08 02:20:05;;;;;;;5.53;1.35;;;10.00;99.90;;;;;;5027708;28;20461;-86
2023/10/08 02:22:31;;;;;;;4.22;1.60;;;10.00;99.90;;;;;;5027340;28;20777;-85
2023/10/08 02:25:01;;;;;;;2.00;0.90;;;10.00;99.90;;;;;;5036121;28;20017;-85
2023/10/08 02:27:27;;;;;;;2.63;0.88;;;10.00;99.90;;;;;;5034880;28;20122;-85
2023/10/08 02:29:54;;;;;;;1.85;1.10;;;10.00;99.90;;;;;;5046929;28;20036;-86
2023/10/08 02:32:22;;;;;;;3.13;0.93;;;10.00;99.90;;;;;;5031664;28;20037;-85
2023/10/08 02:34:48;;;;;;;3.85;1.02;;;10.00;99.90;;;;;;5032554;28;20018;-86
2023/10/08 02:37:15;;;;;;;1.75;0.80;;;10.00;99.90;;;;;;5032288;28;20047;-85
2023/10/08 02:39:41;;;;;;;3.08;1.08;;;10.00;99.90;;;;;;5031857;28;20032;-85
2023/10/08 02:42:10;;;;;;;1.70;1.40;;;10.00;99.90;;;;;;5030939;28;20393;-85
2023/10/08 02:44:41;;;;;;;1.75;0.82;;;9.90;99.90;;;;;;5028339;28;20029;-86
2023/10/08 02:47:11;;;;;;;5.28;1.27;;;10.00;99.90;;;;;;5029887;28;20029;-85
2023/10/08 02:49:40;;;;;;;1.73;0.98;;;9.90;99.90;;;;;;5031651;28;20496;-85
2023/10/08 02:52:08;;;;;;;3.85;1.23;;;10.00;99.90;;;;;;5032471;28;20029;-86
2023/10/08 02:54:36;;;;;;;4.15;0.93;;;9.90;99.90;;;;;;5035332;28;20029;-86
2023/10/08 02:57:04;;;;;;;3.45;1.30;;;9.90;99.90;;;;;;5045770;28;20075;-87
2023/10/08 02:59:40;;;;;;;2.95;0.95;;;9.90;99.90;;;;;;5034389;28;20772;-87
2023/10/08 03:02:19;;;;;;;3.42;1.40;;;9.90;99.90;;;;;;5031373;28;20532;-87
2023/10/08 03:04:46;;;;;;;6.10;1.23;;;9.90;99.90;;;;;;5036272;28;20020;-85
2023/10/08 03:07:21;;;;;;;3.28;1.25;;;9.80;99.90;;;;;;5034903;28;20013;-86
2023/10/08 03:09:49;;;;;;;0.93;0.70;;;9.90;99.90;;;;;;5028855;28;20033;-86
2023/10/08 03:12:16;;;;;;;3.05;0.93;;;9.90;99.90;;;;;;5030961;28;20021;-86
2023/10/08 03:14:52;;;;;;;2.08;1.00;;;9.90;99.90;;;;;;5034275;28;20103;-86
2023/10/08 03:17:20;;;;;;;1.53;1.33;;;9.80;99.90;;;;;;5029952;28;20030;-85
2023/10/08 03:19:48;;;;;;;1.77;1.05;;;9.80;99.90;;;;;;5031976;28;20284;-86
2023/10/08 03:22:18;;;;;;;3.55;0.77;;;9.80;99.90;;;;;;5028333;28;20052;-87
2023/10/08 03:24:47;;;;;;;1.67;0.93;;;9.80;99.90;;;;;;5031403;28;20025;-86
2023/10/08 03:27:20;;;;;;;1.02;0.60;;;9.70;99.90;;;;;;5034461;28;20186;-85
2023/10/08 03:29:46;;;;;;;1.80;1.15;;;9.70;99.90;;;;;;5031654;28;20048;-85
2023/10/08 03:32:15;;;;;;;2.03;1.00;;;9.70;99.90;;;;;;5031251;28;20021;-85
2023/10/08 03:34:46;;;;;;;3.53;1.00;;;9.70;99.90;;;;;;5030270;28;20643;-86
2023/10/08 03:37:19;;;;;;;5.13;1.52;;;9.70;99.90;;;;;;5030958;28;20468;-85
2023/10/08 03:39:52;;;;;;;2.55;0.80;;;9.70;99.90;;;;;;5031984;28;20104;-86
2023/10/08 03:42:25;;;;;;;2.00;0.93;;;9.60;99.90;;;;;;5038418;28;20021;-86
2023/10/08 03:44:52;;;;;;;2.67;1.10;;;9.50;99.90;;;;;;5036924;28;20018;-86
2023/10/08 03:47:23;;;;;;;3.63;1.58;;;9.50;99.90;;;;;;5030979;28;20112;-85
2023/10/08 03:49:51;;;;;;;4.07;1.08;;;9.50;99.90;;;;;;5036289;28;20048;-85
2023/10/08 03:52:23;;;;;;;1.83;0.77;;;9.50;99.90;;;;;;5030183;28;20477;-85
2023/10/08 03:54:51;;;;;;;3.85;0.90;;;9.60;99.90;;;;;;5027689;28;20021;-86
2023/10/08 03:57:28;;;;;;;3.25;0.95;;;9.60;99.90;;;;;;5028199;28;20060;-85
2023/10/08 03:59:58;;;;;;;1.80;0.85;;;9.50;99.90;;;;;;5030469;28;20080;-85
2023/10/08 04:02:40;;;;;;;2.08;0.98;;;9.50;99.90;;;;;;5029813;28;20386;-85
2023/10/08 04:05:18;;;;;;;3.42;0.80;;;9.50;99.90;;;;;;5033546;28;20031;-86
2023/10/08 04:08:16;;;;;;;1.50;1.05;;;9.50;99.90;;;;;;5032472;28;20021;-86
2023/10/08 04:10:49;;;;;;;1.85;1.15;;;9.40;99.90;;;;;;5032524;28;20034;-84
2023/10/08 04:13:16;;;;;;;1.73;1.10;;;9.40;99.90;;;;;;5030192;28;20033;-85
2023/10/08 04:15:42;;;;;;;1.27;0.75;;;9.40;99.90;;;;;;5031427;28;20017;-87
2023/10/08 04:18:08;;;;;;;1.45;1.00;;;9.40;99.90;;;;;;5034229;28;20560;-85
2023/10/08 04:20:51;;;;;;;1.42;0.85;;;9.30;99.90;;;;;;5028846;28;20030;-85
2023/10/08 04:23:23;;;;;;;3.05;0.80;;;9.30;99.90;;;;;;5030332;28;20044;-85
2023/10/08 04:25:54;;;;;;;4.88;1.02;;;9.30;99.90;;;;;;5035890;28;20451;-85
2023/10/08 04:28:20;;;;;;;4.00;0.90;;;9.30;99.90;;;;;;5034584;28;20029;-85
2023/10/08 04:30:48;;;;;;;2.38;1.00;;;9.20;99.90;;;;;;5030782;28;20025;-85
2023/10/08 04:33:14;;;;;;;1.42;0.90;;;9.20;99.90;;;;;;5042662;28;20014;-87
2023/10/08 04:36:01;;;;;;;1.88;1.00;;;9.20;99.90;;;;;;5054364;28;20016;-88
2023/10/08 04:38:28;;;;;;;3.55;0.88;;;9.20;99.90;;;;;;5040984;28;20014;-87
2023/10/08 04:40:55;;;;;;;3.33;1.35;;;9.20;99.90;;;;;;5042863;28;20055;-86
2023/10/08 04:43:25;;;;;;;3.80;1.13;;;9.10;99.90;;;;;;5040086;28;20022;-86
2023/10/08 04:45:56;;;;;;;1.23;0.60;;;9.10;99.90;;;;;;5038033;28;20099;-86
2023/10/08 04:48:23;;;;;;;1.58;0.90;;;9.10;99.90;;;;;;5039449;28;20029;-87
2023/10/08 04:50:58;;;;;;;1.60;0.73;;;9.10;99.90;;;;;;5038788;28;20275;-85
2023/10/08 04:53:35;;;;;;;1.88;1.00;;;9.10;99.90;;;;;;5038338;28;20032;-87
2023/10/08 04:56:05;;;;;;;3.90;1.13;;;9.10;99.90;;;;;;5037713;28;20030;-85
2023/10/08 04:58:36;;;;;;;1.83;0.90;;;9.20;99.90;;;;;;5038482;28;20029;-86
2023/10/08 05:01:18;;;;;;;2.28;1.13;;;9.10;99.90;;;;;;5051921;28;20624;-86
2023/10/08 05:07:17;;;;;;;1.50;0.90;;;9.10;99.90;;;;;;5040527;28;20025;-86
2023/10/08 05:14:36;;;;;;;3.55;1.25;;;9.10;99.90;;;;;;5040389;28;20036;-87
2023/10/08 05:17:09;;;;;;;;;;;9.00;99.90;;;;;;5038801;28;20358;-86
2023/10/08 05:22:44;;;;;;;2.67;1.15;;;9.00;99.90;;;;;;5038550;28;20026;-87
2023/10/08 05:30:16;;;;;;;1.23;0.85;;;9.00;99.90;;;;;;5035180;28;20033;-85
2023/10/08 05:52:07;;;;;;;1.88;1.00;;;8.90;99.90;;;;;;5037205;28;20042;-86
2023/10/08 06:08:38;;;;;;;1.23;0.90;;;8.80;99.90;;;;;;5035165;28;20445;-86
2023/10/08 06:13:55;;;;;;;2.17;1.17;;;8.80;99.90;;;;;;5036698;28;20394;-86
2023/10/08 06:18:27;;;;;;;1.95;1.10;;;8.70;99.90;;;;;;5036170;28;20026;-85
2023/10/08 06:21:00;;;;;;;1.63;0.82;;;8.70;99.90;;;;;;5035733;28;20151;-86
2023/10/08 06:23:28;;;;;;;1.92;1.02;;;8.60;99.90;;;;;;5033196;28;20037;-86
2023/10/08 06:25:57;;;;;;;1.13;0.80;;;8.60;99.90;;;;;;5038072;28;20017;-85
2023/10/08 06:28:25;;;;;;;1.23;0.75;;;8.60;99.90;;;;;;5034279;28;20029;-85
2023/10/08 06:30:56;;;;;;;2.42;0.70;;;8.60;99.90;;;;;;5031835;28;20381;-86
2023/10/08 06:33:30;;;;;;;4.80;1.10;;;8.60;99.90;;;;;;5033870;28;20512;-86
2023/10/08 06:36:05;;;;;;;1.80;1.10;;;8.60;99.90;;;;;;5034723;28;20033;-85
2023/10/08 06:38:32;;;;;;;1.48;1.10;;;8.60;99.90;;;;;;5034398;28;20473;-86
2023/10/08 06:41:08;;;;;;;2.53;1.13;;;8.60;99.90;;;;;;5032135;28;20053;-86
2023/10/08 06:43:36;;;;;;;0.73;0.73;;;8.60;99.90;;;;;;5048829;28;20072;-86
2023/10/08 06:46:03;;;;;;;1.70;0.90;;;8.60;99.90;;;;;;5030189;28;20014;-85
2023/10/08 06:48:29;;;;;;;1.73;1.05;;;8.60;99.90;;;;;;5034935;28;20052;-86
2023/10/08 06:51:07;;;;;;;3.08;1.52;;;8.50;99.90;;;;;;5037504;28;20040;-85
2023/10/08 06:53:38;;;;;;;4.00;1.67;;;8.60;99.90;;;;;;5036426;28;20017;-85
2023/10/08 06:56:04;;;;;;;4.18;1.92;;;8.60;99.90;;;;;;5044984;28;20089;-85
2023/10/08 06:58:34;;;;;;;4.60;1.80;;;8.60;99.90;;;;;;5037028;28;20053;-86
2023/10/08 07:01:04;;;;;;;2.67;1.35;;;8.60;99.90;;;;;;5034550;28;20056;-85
2023/10/08 07:03:31;;;;;;;4.03;1.83;;;8.60;99.90;;;;;;5031177;28;20024;-85
2023/10/08 07:06:02;;;;;;;8.27;1.95;;;8.60;99.90;;;;;;5035221;28;20477;-85
2023/10/08 07:08:32;;;;;;;6.75;1.52;;;8.70;99.90;;;;;;5032802;28;20108;-84
2023/10/08 07:11:01;;;;;;;1.17;0.90;;;8.70;99.90;;;;;;5032255;28;20033;-87
2023/10/08 07:13:29;;;;;;;2.03;1.42;;;8.70;99.90;;;;;;5031068;28;20685;-85
2023/10/08 07:15:56;;;;;;;3.35;1.20;;;8.70;99.90;;;;;;5034683;28;20128;-86
2023/10/08 07:18:25;;;;;;;3.22;1.02;;;8.70;99.90;;;;;;5053529;28;20087;-85
2023/10/08 07:20:55;;;;;;;5.10;1.60;;;8.80;99.90;;;;;;5034760;28;20041;-85
2023/10/08 07:23:25;;;;;;;3.33;1.40;;;8.80;99.90;;;;;;5038641;28;20539;-85
2023/10/08 07:26:10;;;;;;;3.00;1.23;;;8.80;99.90;;;;;;5030080;28;20730;-86
2023/10/08 07:28:40;;;;;;;3.00;0.80;;;8.80;99.90;;;;;;5029783;28;20104;-85
2023/10/08 07:31:15;;;;;;;3.00;1.20;;;8.90;99.90;;;;;;5036554;28;20050;-83
2023/10/08 07:33:46;;;;;;;3.85;1.05;;;8.90;99.90;;;;;;5030937;28;20022;-86
2023/10/08 07:36:14;;;;;;;5.68;0.93;;;9.00;99.90;;;;;;5029681;28;20101;-85
2023/10/08 07:38:43;;;;;;;5.18;1.60;;;9.00;99.90;;;;;;5036654;28;20477;-85
2023/10/08 07:41:12;;;;;;;3.45;1.27;;;9.10;99.90;;;;;;5030776;28;20029;-83
2023/10/08 07:43:39;;;;;;;7.25;2.05;;;9.10;99.90;;;;;;5031870;28;20018;-85
2023/10/08 07:46:05;;;;;;;3.10;1.00;;;9.20;99.90;;;;;;5038047;28;20083;-85
2023/10/08 07:48:31;;;;;;;3.30;1.25;;;9.20;99.90;;;;;;5035728;28;20571;-84
2023/10/08 07:50:57;;;;;;;5.05;2.20;;;9.30;99.90;;;;;;5030623;28;20029;-84
2023/10/08 07:53:37;;;;;;;1.85;1.05;;;9.30;99.90;;;;;;5031530;28;20117;-85
2023/10/08 07:56:10;;;;;;;2.53;0.73;;;9.40;99.90;;;;;;5031852;28;20020;-84
2023/10/08 07:58:36;;;;;;;2.53;1.00;;;9.50;99.90;;;;;;5035615;28;20354;-85
2023/10/08 08:01:09;;;;;;;2.78;0.80;;;9.50;99.90;;;;;;5034035;28;20032;-84
2023/10/08 08:03:38;;;;;;;4.47;1.13;;;9.60;99.90;;;;;;5037756;28;20127;-83
2023/10/08 08:06:07;;;;;;;2.67;1.15;;;9.70;99.90;;;;;;5037395;28;20110;-84
2023/10/08 08:08:34;;;;;;;4.93;1.08;;;9.80;99.90;;;;;;5050575;28;20040;-84
2023/10/08 08:11:11;;;;;;;3.45;0.60;;;9.90;99.90;;;;;;5034931;28;20098;-84
2023/10/08 08:13:43;;;;;;;3.75;0.95;;;10.00;99.90;;;;;;5039070;28;20021;-84
2023/10/08 08:16:16;;;;;;;2.58;0.75;;;10.10;99.90;;;;;;5030381;28;20021;-85
2023/10/08 08:18:55;;;;;;;1.65;0.50;;;10.20;99.90;;;;;;5038134;28;20066;-83
2023/10/08 08:21:23;;;;;;;1.85;1.02;;;10.30;99.90;;;;;;5035685;28;20029;-85
2023/10/08 08:23:49;;;;;;;4.47;0.90;;;10.30;99.90;;;;;;5034977;28;20048;-84
2023/10/08 08:26:29;;;;;;;0.93;0.63;;;10.40;99.90;;;;;;5036043;28;20492;-83
2023/10/08 08:29:01;;;;;;;3.63;0.98;;;10.40;99.90;;;;;;5037623;28;20021;-84
2023/10/08 08:31:35;;;;;;;4.18;0.80;;;10.50;99.90;;;;;;5032542;28;20026;-82
2023/10/08 08:34:14;;;;;;;1.45;1.00;;;10.50;99.90;;;;;;5038028;28;20415;-83
2023/10/08 08:36:46;;;;;;;0.93;0.47;;;10.50;99.90;;;;;;5036097;28;20022;-83
2023/10/08 08:39:11;;;;;;;3.67;1.00;;;10.60;99.90;;;;;;5036616;28;20060;-82
2023/10/08 08:41:38;;;;;;;3.38;0.60;;;10.60;99.90;;;;;;5037841;28;20382;-83
2023/10/08 08:44:06;;;;;;;2.30;1.02;;;10.70;99.90;;;;;;5033992;28;20051;-83
2023/10/08 08:46:35;;;;;;;3.72;1.00;;;10.70;99.90;;;;;;5035608;28;20223;-82
2023/10/08 08:49:07;;;;;;;3.72;1.05;;;10.80;99.90;;;;;;5037477;28;20025;-84
2023/10/08 08:51:37;;;;;;;3.95;0.80;;;10.90;99.90;;;;;;5036274;28;20024;-82
2023/10/08 08:54:06;;;;;;;2.72;0.65;;;10.90;99.90;;;;;;5052575;28;20040;-83
2023/10/08 08:56:34;;;;;;;1.83;0.52;;;11.00;99.90;;;;;;5051758;28;20022;-84
2023/10/08 08:59:01;;;;;;;2.28;0.73;;;11.00;99.90;;;;;;5035451;28;20077;-86
2023/10/08 09:01:29;;;;;;;1.83;0.80;;;11.10;99.90;;;;;;5036224;28;20390;-84
2023/10/08 09:04:04;;;;;;;1.58;0.70;;;11.10;99.90;;;;;;5036167;28;20115;-84
2023/10/08 09:06:34;;;;;;;4.20;1.00;;;11.20;99.90;;;;;;5032000;28;20009;-83
2023/10/08 09:11:45;;;;;;;2.80;1.10;;;11.30;99.90;;;;;;5038464;28;20040;-86
2023/10/08 09:14:11;;;;;;;2.70;0.57;;;11.30;99.90;;;;;;5040430;28;20260;-85
2023/10/08 09:16:37;;;;;;;1.92;0.55;;;11.30;99.90;;;;;;5036344;28;20040;-86
2023/10/08 09:19:04;;;;;;;1.05;0.73;;;11.40;99.90;;;;;;5034923;28;20029;-84
2023/10/08 09:21:30;;;;;;;3.42;1.00;;;11.40;99.90;;;;;;5036786;28;20016;-84
2023/10/08 09:23:56;;;;;;;4.53;1.17;;;11.50;99.90;;;;;;5035751;28;20529;-83
2023/10/08 09:26:29;;;;;;;0.77;0.35;;;11.50;99.90;;;;;;5032809;28;20017;-83
2023/10/08 09:28:54;;;;;;;0.90;0.38;;;11.60;99.90;;;;;;5035744;28;20009;-87
2023/10/08 09:31:23;;;;;;;2.72;0.70;;;11.70;99.90;;;;;;5036455;28;20554;-85
2023/10/08 09:33:55;;;;;;;0.50;0.35;;;11.80;99.90;;;;;;5033174;28;20033;-84
2023/10/08 09:36:31;;;;;;;1.08;0.68;;;11.80;99.90;;;;;;5032972;28;20089;-85
2023/10/08 09:38:59;;;;;;;1.05;0.63;;;11.90;99.90;;;;;;5037021;28;20021;-83
2023/10/08 09:41:26;;;;;;;3.03;0.80;;;11.90;99.90;;;;;;5035063;28;20013;-86
2023/10/08 09:43:52;;;;;;;2.85;0.75;;;11.90;99.90;;;;;;5034661;28;20020;-85
2023/10/08 09:46:19;;;;;;;3.30;1.05;;;11.90;99.90;;;;;;5036493;28;20028;-84
2023/10/08 09:48:51;;;;;;;1.13;0.50;;;11.90;99.90;;;;;;5045556;28;20468;-84
2023/10/08 09:51:17;;;;;;;2.92;0.85;;;11.80;99.90;;;;;;5039412;28;20072;-83
2023/10/08 09:54:10;;;;;;;1.15;0.50;;;11.90;99.90;;;;;;5033664;28;20492;-82
2023/10/08 09:56:39;;;;;;;2.55;0.93;;;11.90;99.90;;;;;;5031411;28;20120;-84
2023/10/08 09:59:04;;;;;;;2.88;0.90;;;12.00;99.90;;;;;;5032980;28;20093;-84
2023/10/08 10:01:32;;;;;;;1.92;0.73;;;12.00;99.90;;;;;;5032154;28;20029;-83
2023/10/08 10:03:59;;;;;;;1.65;0.90;;;12.10;99.90;;;;;;5029541;28;20390;-83
2023/10/08 10:06:26;;;;;;;1.05;0.63;;;12.10;99.90;;;;;;5030908;28;20095;-83
2023/10/08 10:08:55;;;;;;;0.45;0.40;;;12.20;99.90;;;;;;5031621;28;20175;-84
2023/10/08 10:11:26;;;;;;;1.88;0.65;;;12.30;99.90;;;;;;5034891;28;20079;-85
2023/10/08 10:14:01;;;;;;;1.48;0.70;;;12.30;99.90;;;;;;5031809;28;20477;-86
2023/10/08 10:16:27;;;;;;;0.60;0.50;;;12.30;99.90;;;;;;5033505;28;20579;-84
2023/10/08 10:18:57;;;;;;;1.05;0.55;;;12.40;99.90;;;;;;5035020;28;20026;-84
2023/10/08 10:21:30;;;;;;;1.95;0.70;;;12.40;99.90;;;;;;5035145;28;20462;-83
2023/10/08 10:23:56;;;;;;;1.73;0.40;;;12.40;99.90;;;;;;5031539;28;20079;-83
2023/10/08 10:26:33;;;;;;;2.70;0.98;;;12.30;99.90;;;;;;5032358;28;20022;-83
2023/10/08 10:29:19;;;;;;;1.05;0.60;;;12.30;99.90;;;;;;5033691;28;20029;-84
2023/10/08 10:31:49;;;;;;;0.50;0.43;;;12.30;99.90;;;;;;5031994;28;20113;-83
2023/10/08 10:34:17;;;;;;;2.58;0.88;;;12.30;99.90;;;;;;5030738;28;20025;-82
2023/10/08 10:36:48;;;;;;;0.93;0.43;;;12.30;99.90;;;;;;5031033;28;20029;-84
2023/10/08 10:39:29;;;;;;;1.05;0.80;;;12.30;99.90;;;;;;5031132;28;20529;-83
2023/10/08 10:41:57;;;;;;;1.65;0.65;;;12.30;99.90;;;;;;5032238;28;20014;-84
2023/10/08 10:44:24;;;;;;;4.60;0.75;;;12.40;99.90;;;;;;5035735;28;20100;-83
2023/10/08 10:47:22;;;;;;;2.05;0.65;;;12.40;99.90;;;;;;5034084;28;20017;-84
2023/10/08 10:49:55;;;;;;;3.22;0.70;;;12.40;99.90;;;;;;5033971;28;20551;-83
2023/10/08 10:52:44;;;;;;;1.35;0.73;;;12.50;99.90;;;;;;5032559;28;20053;-85
2023/10/08 11:03:02;;;;;;;1.20;0.50;;;12.70;99.90;;;;;;5040271;28;20013;-84
2023/10/08 11:05:36;;;;;;;2.53;0.80;;;12.60;99.90;;;;;;5028990;28;20030;-84
2023/10/08 11:08:07;;;;;;;1.00;0.50;;;12.60;99.90;;;;;;5029198;28;20117;-84
2023/10/08 11:10:40;;;;;;;1.20;0.55;;;12.60;99.90;;;;;;5029676;28;20049;-86
2023/10/08 11:13:14;;;;;;;1.63;0.32;;;12.60;99.90;;;;;;5028799;28;20026;-84
2023/10/08 11:15:40;;;;;;;0.68;0.30;;;12.60;99.90;;;;;;5028163;28;20055;-84
2023/10/08 11:18:10;;;;;;;1.48;0.80;;;12.60;99.90;;;;;;5030436;28;20040;-85
2023/10/08 11:20:39;;;;;;;0.40;0.40;;;12.70;99.90;;;;;;5048631;28;20033;-83
2023/10/08 11:23:18;;;;;;;1.27;0.43;;;12.70;99.90;;;;;;5031668;28;20026;-83
2023/10/08 11:26:02;;;;;;;0.90;0.50;;;12.70;99.90;;;;;;5024712;28;20029;-84
2023/10/08 11:28:34;;;;;;;1.20;0.65;;;12.70;99.90;;;;;;5027559;28;20025;-84
2023/10/08 11:31:20;;;;;;;0.68;0.50;;;12.70;99.90;;;;;;5029956;28;20172;-84
2023/10/08 11:33:55;;;;;;;2.42;0.70;;;12.80;99.90;;;;;;5030303;28;20041;-83
2023/10/08 11:36:27;;;;;;;1.05;0.57;;;12.80;99.90;;;;;;5035401;28;20076;-84
2023/10/08 11:39:00;;;;;;;1.08;0.65;;;12.80;99.90;;;;;;5035247;28;20025;-84
2023/10/08 11:41:27;;;;;;;3.33;0.70;;;12.80;99.90;;;;;;5036236;28;20025;-85
2023/10/08 11:43:57;;;;;;;1.20;0.55;;;12.80;99.90;;;;;;5037109;28;20032;-83
2023/10/08 11:46:41;;;;;;;0.85;0.57;;;12.80;99.90;;;;;;5032377;28;20029;-85
2023/10/08 11:49:07;;;;;;;0.65;0.45;;;12.90;99.90;;;;;;5033506;28;20032;-83
2023/10/08 11:51:34;;;;;;;0.93;0.77;;;12.90;99.90;;;;;;5033552;28;20051;-83
2023/10/08 11:54:01;;;;;;;0.40;0.40;;;12.90;99.90;;;;;;5032818;28;20087;-86
2023/10/08 11:56:29;;;;;;;0.93;0.60;;;12.90;99.90;;;;;;5032272;28;20026;-83
2023/10/08 11:58:56;;;;;;;2.13;0.60;;;12.90;99.90;;;;;;5028404;28;20112;-83
2023/10/08 12:01:23;;;;;;;1.50;0.50;;;12.90;99.90;;;;;;5031461;28;20116;-84
2023/10/08 12:03:49;;;;;;;1.05;0.50;;;12.90;99.90;;;;;;5052724;28;20005;-85
2023/10/08 12:06:18;;;;;;;1.02;0.75;;;12.90;99.90;;;;;;5034132;28;20117;-84
2023/10/08 12:08:53;;;;;;;1.60;0.75;;;12.90;99.90;;;;;;5045923;28;20050;-84
2023/10/08 12:11:19;;;;;;;0.32;0.30;;;12.90;99.90;;;;;;5031838;28;20128;-83
2023/10/08 12:13:45;;;;;;;1.67;0.65;;;12.90;99.90;;;;;;5048964;28;20037;-83
2023/10/08 12:16:18;;;;;;;0.93;0.43;;;12.90;99.90;;;;;;5032169;28;20022;-83
2023/10/08 12:18:48;;;;;;;0.88;0.70;;;12.90;99.90;;;;;;5044191;28;20014;-83
2023/10/08 12:21:15;;;;;;;1.17;0.70;;;12.90;99.90;;;;;;5032015;28;20029;-83
2023/10/08 12:23:46;;;;;;;1.08;0.60;;;13.00;99.90;;;;;;5032016;28;20045;-83
2023/10/08 12:26:15;;;;;;;0.65;0.40;;;13.00;99.90;;;;;;5036195;28;20026;-83
2023/10/08 12:28:44;;;;;;;1.23;0.38;;;13.00;99.90;;;;;;5035174;28;20021;-83
2023/10/08 12:31:10;;;;;;;1.20;0.68;;;13.10;99.90;;;;;;5035290;28;20036;-83
2023/10/08 12:33:37;;;;;;;0.88;0.50;;;13.10;99.90;;;;;;5037662;28;20059;-85
2023/10/08 12:36:10;;;;;;;0.63;0.50;;;13.10;99.90;;;;;;5036142;28;20092;-83
2023/10/08 12:38:37;;;;;;;2.03;0.90;;;13.10;99.90;;;;;;5038415;28;20035;-85
2023/10/08 12:41:11;;;;;;;1.15;0.47;;;13.10;99.90;;;;;;5035275;28;20030;-83
2023/10/08 12:43:42;;;;;;;1.90;0.82;;;13.20;99.90;;;;;;5037937;28;20051;-84
2023/10/08 12:46:15;;;;;;;2.42;0.47;;;13.20;99.90;;;;;;5040682;28;20044;-83
2023/10/08 12:48:43;;;;;;;0.75;0.63;;;13.20;99.90;;;;;;5034048;28;20021;-85
2023/10/08 12:51:11;;;;;;;1.83;0.60;;;13.20;99.90;;;;;;5032627;28;20029;-84
2023/10/08 12:53:37;;;;;;;1.05;0.70;;;13.20;99.90;;;;;;5037856;28;20501;-83
2023/10/08 12:56:07;;;;;;;1.80;0.57;;;13.20;99.90;;;;;;5040410;28;20103;-84
2023/10/08 12:58:41;;;;;;;1.48;0.47;;;13.20;99.90;;;;;;5033036;28;20029;-83
2023/10/08 13:01:09;;;;;;;0.88;0.52;;;13.20;99.90;;;;;;5048014;28;20033;-83
2023/10/08 13:03:41;;;;;;;1.55;0.57;;;13.30;99.90;;;;;;5032657;28;20032;-82
2023/10/08 13:06:22;;;;;;;0.85;0.52;;;13.30;99.90;;;;;;5036096;28;20037;-82
2023/10/08 13:08:52;;;;;;;3.72;0.50;;;13.30;99.90;;;;;;5034441;28;20114;-83
2023/10/08 13:11:22;;;;;;;2.78;0.43;;;13.30;99.90;;;;;;5036283;28;20136;-82
2023/10/08 13:13:49;;;;;;;0.82;0.68;;;13.30;99.90;;;;;;5039661;28;20033;-82
2023/10/08 13:16:14;;;;;;;1.33;0.60;;;13.30;99.90;;;;;;5037104;28;20033;-84
2023/10/08 13:18:43;;;;;;;1.25;0.63;;;13.30;99.90;;;;;;5035409;28;20068;-84
2023/10/08 13:21:09;;;;;;;0.93;0.80;;;13.30;99.90;;;;;;5032882;28;20032;-83
2023/10/08 13:23:35;;;;;;;1.85;0.63;;;13.30;99.90;;;;;;5034410;28;20049;-83
2023/10/08 13:26:04;;;;;;;1.90;0.65;;;13.30;99.90;;;;;;5034799;28;20024;-83
2023/10/08 13:28:30;;;;;;;3.10;0.70;;;13.30;99.90;;;;;;5036642;28;20028;-83
2023/10/08 13:30:55;;;;;;;0.73;0.40;;;13.30;99.90;;;;;;5036742;28;20024;-83
2023/10/08 13:33:22;;;;;;;0.80;0.50;;;13.30;99.90;;;;;;5035148;28;20109;-84
2023/10/08 13:35:51;;;;;;;1.27;0.65;;;13.40;99.90;;;;;;5034490;28;20034;-82
2023/10/08 13:38:19;;;;;;;0.43;0.43;;;13.40;99.90;;;;;;5034514;28;20434;-83
2023/10/08 13:41:03;;;;;;;1.95;0.82;;;13.40;99.90;;;;;;5033990;28;20401;-84
2023/10/08 13:43:34;;;;;;;0.95;0.57;;;13.50;99.90;;;;;;5033574;28;20467;-83
2023/10/08 13:46:13;;;;;;;1.73;0.70;;;13.50;99.90;;;;;;5031010;28;20025;-83
2023/10/08 13:48:40;;;;;;;0.82;0.52;;;13.50;99.90;;;;;;5035191;28;20025;-84
2023/10/08 13:51:13;;;;;;;0.82;0.55;;;13.50;99.90;;;;;;5032838;28;20101;-83
2023/10/08 13:53:45;;;;;;;1.02;0.50;;;13.50;99.90;;;;;;5033803;28;20026;-84
2023/10/08 13:56:11;;;;;;;0.70;0.57;;;13.50;99.90;;;;;;5033616;28;20163;-86
2023/10/08 13:58:41;;;;;;;0.65;0.47;;;13.50;99.90;;;;;;5037338;28;20452;-83
2023/10/08 14:01:18;;;;;;;1.48;0.73;;;13.50;99.90;;;;;;5033630;28;20037;-84
2023/10/08 14:03:47;;;;;;;0.98;0.73;;;13.50;99.90;;;;;;5035028;28;20018;-84
2023/10/08 14:06:13;;;;;;;0.73;0.60;;;13.50;99.90;;;;;;5031666;28;20029;-83
2023/10/08 14:08:39;;;;;;;1.02;0.55;;;13.50;99.90;;;;;;5034541;28;20033;-84
2023/10/08 14:11:05;;;;;;;0.80;0.50;;;13.50;99.90;;;;;;5040802;28;20093;-83
2023/10/08 14:13:35;;;;;;;0.65;0.47;;;13.50;99.90;;;;;;5033617;28;20029;-83
2023/10/08 14:16:08;;;;;;;0.52;0.35;;;13.50;99.90;;;;;;5033728;28;20033;-83
2023/10/08 14:18:40;;;;;;;0.68;0.50;;;13.50;99.90;;;;;;5033896;28;20507;-84